sensor_id;sensor_type;location;lat;lon;timestamp;P1;durP1;ratioP1;P2;durP2;ratioP2
44728;SDS011;30457;53.590;9.922;2023-05-09T00:01:28;4.55;;;1.98;;
44728;SDS011;30457;53.590;9.922;2023-05-09T00:05:55;2.28;;;1.52;;
44728;SDS011;30457;53.590;9.922;2023-05-09T00:10:20;4.88;;;1.90;;
44728;SDS011;30457;53.590;9.922;2023-05-09T00:14:46;2.60;;;1.65;;
44728;SDS011;30457;53.590;9.922;2023-05-09T00:19:15;4.28;;;1.58;;
44728;SDS011;30457;53.590;9.922;2023-05-09T00:23:41;4.82;;;1.85;;
44728;SDS011;30457;53.590;9.922;2023-05-09T00:28:06;5.55;;;1.58;;
44728;SDS011;30457;53.590;9.922;2023-05-09T00:32:32;3.33;;;1.88;;
44728;SDS011;30457;53.590;9.922;2023-05-09T00:36:58;3.28;;;1.60;;
44728;SDS011;30457;53.590;9.922;2023-05-09T00:41:24;3.42;;;1.70;;
44728;SDS011;30457;53.590;9.922;2023-05-09T00:45:49;2.20;;;1.63;;
44728;SDS011;30457;53.590;9.922;2023-05-09T00:50:15;1.80;;;1.63;;
44728;SDS011;30457;53.590;9.922;2023-05-09T00:54:41;3.30;;;2.90;;
44728;SDS011;30457;53.590;9.922;2023-05-09T00:59:06;3.65;;;1.70;;
44728;SDS011;30457;53.590;9.922;2023-05-09T01:03:32;2.00;;;1.30;;
44728;SDS011;30457;53.590;9.922;2023-05-09T01:13:03;2.15;;;1.67;;
44728;SDS011;30457;53.590;9.922;2023-05-09T01:17:48;3.00;;;1.50;;
44728;SDS011;30457;53.590;9.922;2023-05-09T01:22:19;2.10;;;1.75;;
44728;SDS011;30457;53.590;9.922;2023-05-09T01:27:11;4.75;;;1.88;;
44728;SDS011;30457;53.590;9.922;2023-05-09T01:32:00;4.35;;;1.98;;
44728;SDS011;30457;53.590;9.922;2023-05-09T01:36:31;6.40;;;2.10;;
44728;SDS011;30457;53.590;9.922;2023-05-09T01:41:00;4.78;;;1.70;;
44728;SDS011;30457;53.590;9.922;2023-05-09T01:45:29;1.80;;;1.50;;
44728;SDS011;30457;53.590;9.922;2023-05-09T01:49:56;3.28;;;1.90;;
44728;SDS011;30457;53.590;9.922;2023-05-09T01:54:25;3.85;;;2.20;;
44728;SDS011;30457;53.590;9.922;2023-05-09T01:58:51;4.60;;;2.40;;
44728;SDS011;30457;53.590;9.922;2023-05-09T02:03:19;4.78;;;1.65;;
44728;SDS011;30457;53.590;9.922;2023-05-09T02:07:46;2.42;;;1.90;;
44728;SDS011;30457;53.590;9.922;2023-05-09T02:12:13;3.10;;;2.08;;
44728;SDS011;30457;53.590;9.922;2023-05-09T02:16:38;1.85;;;1.63;;
44728;SDS011;30457;53.590;9.922;2023-05-09T02:21:05;5.05;;;2.28;;
44728;SDS011;30457;53.590;9.922;2023-05-09T02:25:31;3.45;;;1.88;;
44728;SDS011;30457;53.590;9.922;2023-05-09T02:29:57;3.88;;;2.30;;
44728;SDS011;30457;53.590;9.922;2023-05-09T02:34:26;3.55;;;2.38;;
44728;SDS011;30457;53.590;9.922;2023-05-09T02:38:52;4.40;;;2.40;;
44728;SDS011;30457;53.590;9.922;2023-05-09T02:43:18;4.18;;;2.05;;
44728;SDS011;30457;53.590;9.922;2023-05-09T02:47:43;3.00;;;2.08;;
44728;SDS011;30457;53.590;9.922;2023-05-09T02:52:09;4.22;;;2.53;;
44728;SDS011;30457;53.590;9.922;2023-05-09T02:56:35;3.83;;;2.65;;
44728;SDS011;30457;53.590;9.922;2023-05-09T03:01:01;4.25;;;2.35;;
44728;SDS011;30457;53.590;9.922;2023-05-09T03:05:27;3.22;;;2.60;;
44728;SDS011;30457;53.590;9.922;2023-05-09T03:09:52;2.63;;;2.20;;
44728;SDS011;30457;53.590;9.922;2023-05-09T03:14:18;6.15;;;2.83;;
44728;SDS011;30457;53.590;9.922;2023-05-09T03:18:44;3.35;;;2.58;;
44728;SDS011;30457;53.590;9.922;2023-05-09T03:23:09;4.15;;;2.50;;
44728;SDS011;30457;53.590;9.922;2023-05-09T03:27:35;5.15;;;2.80;;
44728;SDS011;30457;53.590;9.922;2023-05-09T03:32:04;4.03;;;2.65;;
44728;SDS011;30457;53.590;9.922;2023-05-09T03:36:30;3.25;;;2.38;;
44728;SDS011;30457;53.590;9.922;2023-05-09T03:40:57;2.58;;;2.38;;
44728;SDS011;30457;53.590;9.922;2023-05-09T03:45:23;4.80;;;2.83;;
44728;SDS011;30457;53.590;9.922;2023-05-09T03:49:49;2.78;;;2.17;;
44728;SDS011;30457;53.590;9.922;2023-05-09T03:54:19;3.03;;;2.50;;
44728;SDS011;30457;53.590;9.922;2023-05-09T03:58:46;5.78;;;2.70;;
44728;SDS011;30457;53.590;9.922;2023-05-09T04:03:12;3.88;;;2.75;;
44728;SDS011;30457;53.590;9.922;2023-05-09T04:07:43;7.18;;;2.90;;
44728;SDS011;30457;53.590;9.922;2023-05-09T04:12:09;3.67;;;2.80;;
44728;SDS011;30457;53.590;9.922;2023-05-09T04:16:35;4.00;;;2.85;;
44728;SDS011;30457;53.590;9.922;2023-05-09T04:21:00;3.47;;;2.97;;
44728;SDS011;30457;53.590;9.922;2023-05-09T04:25:27;3.20;;;2.88;;
44728;SDS011;30457;53.590;9.922;2023-05-09T04:29:55;3.85;;;2.90;;
44728;SDS011;30457;53.590;9.922;2023-05-09T04:34:21;5.47;;;3.00;;
44728;SDS011;30457;53.590;9.922;2023-05-09T04:38:46;2.55;;;2.35;;
44728;SDS011;30457;53.590;9.922;2023-05-09T04:43:16;3.30;;;2.70;;
44728;SDS011;30457;53.590;9.922;2023-05-09T04:47:42;5.10;;;3.08;;
44728;SDS011;30457;53.590;9.922;2023-05-09T04:52:08;3.20;;;2.80;;
44728;SDS011;30457;53.590;9.922;2023-05-09T04:56:33;3.75;;;2.90;;
44728;SDS011;30457;53.590;9.922;2023-05-09T05:00:59;4.40;;;3.10;;
44728;SDS011;30457;53.590;9.922;2023-05-09T05:05:25;4.35;;;3.30;;
44728;SDS011;30457;53.590;9.922;2023-05-09T05:09:52;3.95;;;3.20;;
44728;SDS011;30457;53.590;9.922;2023-05-09T05:14:18;5.32;;;3.17;;
44728;SDS011;30457;53.590;9.922;2023-05-09T05:18:43;3.92;;;3.20;;
44728;SDS011;30457;53.590;9.922;2023-05-09T05:23:09;5.10;;;3.10;;
44728;SDS011;30457;53.590;9.922;2023-05-09T05:27:36;5.18;;;3.30;;
44728;SDS011;30457;53.590;9.922;2023-05-09T05:32:02;3.65;;;2.97;;
44728;SDS011;30457;53.590;9.922;2023-05-09T05:36:27;4.68;;;3.25;;
44728;SDS011;30457;53.590;9.922;2023-05-09T05:40:53;4.32;;;3.20;;
44728;SDS011;30457;53.590;9.922;2023-05-09T05:45:20;6.18;;;3.47;;
44728;SDS011;30457;53.590;9.922;2023-05-09T05:49:49;4.30;;;3.20;;
44728;SDS011;30457;53.590;9.922;2023-05-09T05:54:15;6.00;;;3.08;;
44728;SDS011;30457;53.590;9.922;2023-05-09T05:58:40;7.82;;;2.92;;
44728;SDS011;30457;53.590;9.922;2023-05-09T06:03:06;4.82;;;3.13;;
44728;SDS011;30457;53.590;9.922;2023-05-09T06:07:44;4.20;;;3.25;;
44728;SDS011;30457;53.590;9.922;2023-05-09T06:12:09;4.07;;;2.95;;
44728;SDS011;30457;53.590;9.922;2023-05-09T06:16:36;4.35;;;3.13;;
44728;SDS011;30457;53.590;9.922;2023-05-09T06:21:02;4.05;;;3.53;;
44728;SDS011;30457;53.590;9.922;2023-05-09T06:25:28;6.60;;;3.38;;
44728;SDS011;30457;53.590;9.922;2023-05-09T06:29:53;5.22;;;3.25;;
44728;SDS011;30457;53.590;9.922;2023-05-09T06:34:19;6.50;;;3.47;;
44728;SDS011;30457;53.590;9.922;2023-05-09T06:38:44;5.50;;;3.60;;
44728;SDS011;30457;53.590;9.922;2023-05-09T06:43:10;4.72;;;3.38;;
44728;SDS011;30457;53.590;9.922;2023-05-09T06:47:36;4.65;;;3.22;;
44728;SDS011;30457;53.590;9.922;2023-05-09T06:52:01;5.22;;;3.03;;
44728;SDS011;30457;53.590;9.922;2023-05-09T06:56:27;9.77;;;3.97;;
44728;SDS011;30457;53.590;9.922;2023-05-09T07:00:52;5.43;;;3.53;;
44728;SDS011;30457;53.590;9.922;2023-05-09T07:05:18;6.90;;;3.78;;
44728;SDS011;30457;53.590;9.922;2023-05-09T07:09:44;5.60;;;3.15;;
44728;SDS011;30457;53.590;9.922;2023-05-09T07:14:10;6.13;;;2.92;;
44728;SDS011;30457;53.590;9.922;2023-05-09T07:18:35;4.45;;;3.35;;
44728;SDS011;30457;53.590;9.922;2023-05-09T07:23:04;8.82;;;3.30;;
44728;SDS011;30457;53.590;9.922;2023-05-09T07:27:29;3.97;;;2.80;;
44728;SDS011;30457;53.590;9.922;2023-05-09T07:31:55;3.50;;;3.08;;
44728;SDS011;30457;53.590;9.922;2023-05-09T07:36:20;7.55;;;3.55;;
44728;SDS011;30457;53.590;9.922;2023-05-09T07:40:46;4.20;;;3.30;;
44728;SDS011;30457;53.590;9.922;2023-05-09T07:45:12;4.13;;;3.47;;
44728;SDS011;30457;53.590;9.922;2023-05-09T07:49:37;4.40;;;3.65;;
44728;SDS011;30457;53.590;9.922;2023-05-09T07:54:04;5.03;;;3.00;;
44728;SDS011;30457;53.590;9.922;2023-05-09T07:58:30;3.75;;;3.10;;
44728;SDS011;30457;53.590;9.922;2023-05-09T08:02:55;3.78;;;3.10;;
44728;SDS011;30457;53.590;9.922;2023-05-09T08:07:21;5.72;;;3.30;;
44728;SDS011;30457;53.590;9.922;2023-05-09T08:11:47;12.57;;;3.20;;
44728;SDS011;30457;53.590;9.922;2023-05-09T08:16:12;8.48;;;3.30;;
44728;SDS011;30457;53.590;9.922;2023-05-09T08:20:38;3.70;;;2.65;;
44728;SDS011;30457;53.590;9.922;2023-05-09T08:25:03;3.63;;;3.30;;
44728;SDS011;30457;53.590;9.922;2023-05-09T08:29:29;5.07;;;2.75;;
44728;SDS011;30457;53.590;9.922;2023-05-09T08:33:55;4.82;;;2.97;;
44728;SDS011;30457;53.590;9.922;2023-05-09T08:38:21;3.85;;;2.90;;
44728;SDS011;30457;53.590;9.922;2023-05-09T08:42:48;9.55;;;3.17;;
44728;SDS011;30457;53.590;9.922;2023-05-09T08:47:14;5.32;;;3.03;;
44728;SDS011;30457;53.590;9.922;2023-05-09T08:51:40;4.20;;;2.80;;
44728;SDS011;30457;53.590;9.922;2023-05-09T08:56:06;7.35;;;3.42;;
44728;SDS011;30457;53.590;9.922;2023-05-09T09:00:32;6.43;;;2.78;;
44728;SDS011;30457;53.590;9.922;2023-05-09T09:04:58;2.80;;;2.60;;
44728;SDS011;30457;53.590;9.922;2023-05-09T09:09:24;5.45;;;2.72;;
44728;SDS011;30457;53.590;9.922;2023-05-09T09:13:51;2.80;;;2.55;;
44728;SDS011;30457;53.590;9.922;2023-05-09T09:18:20;6.15;;;2.78;;
44728;SDS011;30457;53.590;9.922;2023-05-09T09:22:48;3.08;;;2.65;;
44728;SDS011;30457;53.590;9.922;2023-05-09T09:27:16;3.88;;;2.67;;
44728;SDS011;30457;53.590;9.922;2023-05-09T09:31:45;4.65;;;2.80;;
44728;SDS011;30457;53.590;9.922;2023-05-09T09:36:21;3.13;;;2.80;;
44728;SDS011;30457;53.590;9.922;2023-05-09T09:45:17;4.00;;;2.50;;
44728;SDS011;30457;53.590;9.922;2023-05-09T09:49:44;4.55;;;2.50;;
44728;SDS011;30457;53.590;9.922;2023-05-09T09:54:11;2.20;;;2.00;;
44728;SDS011;30457;53.590;9.922;2023-05-09T09:58:38;2.55;;;2.25;;
44728;SDS011;30457;53.590;9.922;2023-05-09T10:03:04;4.93;;;2.25;;
44728;SDS011;30457;53.590;9.922;2023-05-09T10:07:32;5.95;;;2.33;;
44728;SDS011;30457;53.590;9.922;2023-05-09T10:12:00;2.78;;;2.20;;
44728;SDS011;30457;53.590;9.922;2023-05-09T10:16:28;5.13;;;2.28;;
44728;SDS011;30457;53.590;9.922;2023-05-09T10:20:53;2.83;;;2.53;;
44728;SDS011;30457;53.590;9.922;2023-05-09T10:25:21;3.92;;;2.70;;
44728;SDS011;30457;53.590;9.922;2023-05-09T10:30:05;2.80;;;2.47;;
44728;SDS011;30457;53.590;9.922;2023-05-09T10:34:34;4.65;;;2.20;;
44728;SDS011;30457;53.590;9.922;2023-05-09T10:39:04;2.13;;;1.92;;
44728;SDS011;30457;53.590;9.922;2023-05-09T10:43:30;7.35;;;2.40;;
44728;SDS011;30457;53.590;9.922;2023-05-09T10:47:57;5.38;;;2.70;;
44728;SDS011;30457;53.590;9.922;2023-05-09T10:52:23;2.92;;;2.10;;
44728;SDS011;30457;53.590;9.922;2023-05-09T10:56:49;2.65;;;1.83;;
44728;SDS011;30457;53.590;9.922;2023-05-09T11:01:15;5.18;;;2.45;;
44728;SDS011;30457;53.590;9.922;2023-05-09T11:05:58;6.35;;;2.22;;
44728;SDS011;30457;53.590;9.922;2023-05-09T11:10:24;4.15;;;3.17;;
44728;SDS011;30457;53.590;9.922;2023-05-09T11:14:50;2.30;;;2.10;;
44728;SDS011;30457;53.590;9.922;2023-05-09T11:24:16;3.80;;;2.55;;
44728;SDS011;30457;53.590;9.922;2023-05-09T11:28:50;4.47;;;2.40;;
44728;SDS011;30457;53.590;9.922;2023-05-09T11:33:21;6.82;;;2.20;;
44728;SDS011;30457;53.590;9.922;2023-05-09T11:38:01;3.88;;;2.13;;
44728;SDS011;30457;53.590;9.922;2023-05-09T11:42:30;5.57;;;2.13;;
44728;SDS011;30457;53.590;9.922;2023-05-09T11:46:56;8.90;;;2.20;;
44728;SDS011;30457;53.590;9.922;2023-05-09T11:51:22;7.95;;;2.63;;
44728;SDS011;30457;53.590;9.922;2023-05-09T11:55:48;15.05;;;2.80;;
44728;SDS011;30457;53.590;9.922;2023-05-09T12:00:17;5.50;;;2.22;;
44728;SDS011;30457;53.590;9.922;2023-05-09T12:04:44;5.82;;;2.70;;
44728;SDS011;30457;53.590;9.922;2023-05-09T12:09:10;8.38;;;2.58;;
44728;SDS011;30457;53.590;9.922;2023-05-09T12:13:43;2.17;;;1.80;;
44728;SDS011;30457;53.590;9.922;2023-05-09T12:18:16;13.85;;;2.55;;
44728;SDS011;30457;53.590;9.922;2023-05-09T12:22:42;10.18;;;2.50;;
44728;SDS011;30457;53.590;9.922;2023-05-09T12:27:08;5.43;;;2.50;;
44728;SDS011;30457;53.590;9.922;2023-05-09T12:31:34;14.95;;;8.75;;
44728;SDS011;30457;53.590;9.922;2023-05-09T12:36:05;22.63;;;12.20;;
44728;SDS011;30457;53.590;9.922;2023-05-09T12:40:35;24.73;;;13.75;;
44728;SDS011;30457;53.590;9.922;2023-05-09T12:45:01;20.50;;;12.25;;
44728;SDS011;30457;53.590;9.922;2023-05-09T12:49:28;12.20;;;8.57;;
44728;SDS011;30457;53.590;9.922;2023-05-09T12:53:54;13.43;;;7.28;;
44728;SDS011;30457;53.590;9.922;2023-05-09T12:58:29;7.65;;;4.70;;
44728;SDS011;30457;53.590;9.922;2023-05-09T13:02:55;6.80;;;4.55;;
44728;SDS011;30457;53.590;9.922;2023-05-09T13:07:21;4.18;;;3.40;;
44728;SDS011;30457;53.590;9.922;2023-05-09T13:11:47;4.32;;;3.45;;
44728;SDS011;30457;53.590;9.922;2023-05-09T13:16:14;4.93;;;2.90;;
44728;SDS011;30457;53.590;9.922;2023-05-09T13:20:39;8.80;;;3.20;;
44728;SDS011;30457;53.590;9.922;2023-05-09T13:25:05;3.47;;;2.30;;
44728;SDS011;30457;53.590;9.922;2023-05-09T13:29:31;5.03;;;2.25;;
44728;SDS011;30457;53.590;9.922;2023-05-09T13:33:57;4.55;;;2.35;;
44728;SDS011;30457;53.590;9.922;2023-05-09T13:38:22;7.15;;;2.15;;
44728;SDS011;30457;53.590;9.922;2023-05-09T13:42:49;4.03;;;2.38;;
44728;SDS011;30457;53.590;9.922;2023-05-09T13:47:15;4.97;;;2.03;;
44728;SDS011;30457;53.590;9.922;2023-05-09T13:51:40;3.75;;;1.88;;
44728;SDS011;30457;53.590;9.922;2023-05-09T13:56:06;4.85;;;2.35;;
44728;SDS011;30457;53.590;9.922;2023-05-09T14:00:33;2.35;;;2.13;;
44728;SDS011;30457;53.590;9.922;2023-05-09T14:04:59;2.75;;;2.13;;
44728;SDS011;30457;53.590;9.922;2023-05-09T14:09:27;3.28;;;2.47;;
44728;SDS011;30457;53.590;9.922;2023-05-09T14:13:53;3.10;;;2.20;;
44728;SDS011;30457;53.590;9.922;2023-05-09T14:18:19;3.13;;;2.30;;
44728;SDS011;30457;53.590;9.922;2023-05-09T14:22:44;5.65;;;2.40;;
44728;SDS011;30457;53.590;9.922;2023-05-09T14:27:10;3.83;;;2.30;;
44728;SDS011;30457;53.590;9.922;2023-05-09T14:31:36;3.15;;;2.20;;
44728;SDS011;30457;53.590;9.922;2023-05-09T14:36:01;4.50;;;1.98;;
44728;SDS011;30457;53.590;9.922;2023-05-09T14:40:28;2.63;;;1.90;;
44728;SDS011;30457;53.590;9.922;2023-05-09T14:44:55;2.22;;;2.03;;
44728;SDS011;30457;53.590;9.922;2023-05-09T14:49:21;2.90;;;1.90;;
44728;SDS011;30457;53.590;9.922;2023-05-09T14:53:47;8.93;;;2.55;;
44728;SDS011;30457;53.590;9.922;2023-05-09T14:58:12;2.20;;;1.90;;
44728;SDS011;30457;53.590;9.922;2023-05-09T15:02:40;6.03;;;2.00;;
44728;SDS011;30457;53.590;9.922;2023-05-09T15:07:05;2.25;;;1.92;;
44728;SDS011;30457;53.590;9.922;2023-05-09T15:11:31;2.72;;;2.33;;
44728;SDS011;30457;53.590;9.922;2023-05-09T15:15:57;5.53;;;2.20;;
44728;SDS011;30457;53.590;9.922;2023-05-09T15:20:23;2.67;;;1.95;;
44728;SDS011;30457;53.590;9.922;2023-05-09T15:24:48;6.85;;;2.00;;
44728;SDS011;30457;53.590;9.922;2023-05-09T15:29:14;2.53;;;1.95;;
44728;SDS011;30457;53.590;9.922;2023-05-09T15:33:39;10.23;;;2.10;;
44728;SDS011;30457;53.590;9.922;2023-05-09T15:38:05;3.28;;;1.77;;
44728;SDS011;30457;53.590;9.922;2023-05-09T15:42:31;6.38;;;2.47;;
44728;SDS011;30457;53.590;9.922;2023-05-09T15:46:57;3.55;;;1.77;;
44728;SDS011;30457;53.590;9.922;2023-05-09T15:51:23;6.25;;;2.15;;
44728;SDS011;30457;53.590;9.922;2023-05-09T15:55:48;3.05;;;1.70;;
44728;SDS011;30457;53.590;9.922;2023-05-09T16:00:14;2.95;;;1.90;;
44728;SDS011;30457;53.590;9.922;2023-05-09T16:04:41;4.47;;;1.70;;
44728;SDS011;30457;53.590;9.922;2023-05-09T16:09:07;2.00;;;1.55;;
44728;SDS011;30457;53.590;9.922;2023-05-09T16:13:33;3.30;;;1.60;;
44728;SDS011;30457;53.590;9.922;2023-05-09T16:17:59;4.95;;;1.80;;
44728;SDS011;30457;53.590;9.922;2023-05-09T16:22:24;8.07;;;2.45;;
44728;SDS011;30457;53.590;9.922;2023-05-09T16:26:50;5.80;;;1.80;;
44728;SDS011;30457;53.590;9.922;2023-05-09T16:31:16;3.05;;;1.83;;
44728;SDS011;30457;53.590;9.922;2023-05-09T16:35:42;2.30;;;1.83;;
44728;SDS011;30457;53.590;9.922;2023-05-09T16:40:08;5.18;;;2.00;;
44728;SDS011;30457;53.590;9.922;2023-05-09T16:44:34;6.20;;;1.70;;
44728;SDS011;30457;53.590;9.922;2023-05-09T16:49:00;1.50;;;1.40;;
44728;SDS011;30457;53.590;9.922;2023-05-09T16:53:25;2.92;;;1.80;;
44728;SDS011;30457;53.590;9.922;2023-05-09T16:57:51;2.50;;;1.70;;
44728;SDS011;30457;53.590;9.922;2023-05-09T17:02:16;8.02;;;1.77;;
44728;SDS011;30457;53.590;9.922;2023-05-09T17:06:42;2.33;;;1.50;;
44728;SDS011;30457;53.590;9.922;2023-05-09T17:11:07;2.90;;;1.73;;
44728;SDS011;30457;53.590;9.922;2023-05-09T17:15:33;1.63;;;1.30;;
44728;SDS011;30457;53.590;9.922;2023-05-09T17:19:59;2.13;;;1.73;;
44728;SDS011;30457;53.590;9.922;2023-05-09T17:24:29;5.80;;;1.75;;
44728;SDS011;30457;53.590;9.922;2023-05-09T17:28:54;4.22;;;1.67;;
44728;SDS011;30457;53.590;9.922;2023-05-09T17:33:20;4.78;;;1.60;;
44728;SDS011;30457;53.590;9.922;2023-05-09T17:37:45;2.53;;;1.88;;
44728;SDS011;30457;53.590;9.922;2023-05-09T17:42:11;6.38;;;1.80;;
44728;SDS011;30457;53.590;9.922;2023-05-09T17:46:36;3.60;;;1.65;;
44728;SDS011;30457;53.590;9.922;2023-05-09T17:51:02;3.15;;;1.65;;
44728;SDS011;30457;53.590;9.922;2023-05-09T17:55:28;3.15;;;1.60;;
44728;SDS011;30457;53.590;9.922;2023-05-09T17:59:54;2.90;;;1.67;;
44728;SDS011;30457;53.590;9.922;2023-05-09T18:04:20;2.80;;;2.00;;
44728;SDS011;30457;53.590;9.922;2023-05-09T18:08:46;2.13;;;1.70;;
44728;SDS011;30457;53.590;9.922;2023-05-09T18:13:12;3.15;;;1.60;;
44728;SDS011;30457;53.590;9.922;2023-05-09T18:17:38;6.85;;;1.98;;
44728;SDS011;30457;53.590;9.922;2023-05-09T18:22:03;2.13;;;1.58;;
44728;SDS011;30457;53.590;9.922;2023-05-09T18:26:29;3.10;;;1.52;;
44728;SDS011;30457;53.590;9.922;2023-05-09T18:30:58;6.78;;;1.85;;
44728;SDS011;30457;53.590;9.922;2023-05-09T18:35:25;4.03;;;1.80;;
44728;SDS011;30457;53.590;9.922;2023-05-09T18:39:50;1.55;;;1.42;;
44728;SDS011;30457;53.590;9.922;2023-05-09T18:44:16;6.50;;;1.83;;
44728;SDS011;30457;53.590;9.922;2023-05-09T18:48:42;2.60;;;1.70;;
44728;SDS011;30457;53.590;9.922;2023-05-09T18:53:09;3.08;;;1.45;;
44728;SDS011;30457;53.590;9.922;2023-05-09T18:57:34;3.97;;;1.80;;
44728;SDS011;30457;53.590;9.922;2023-05-09T19:02:00;4.75;;;1.63;;
44728;SDS011;30457;53.590;9.922;2023-05-09T19:06:25;1.67;;;1.42;;
44728;SDS011;30457;53.590;9.922;2023-05-09T19:10:52;4.57;;;1.52;;
44728;SDS011;30457;53.590;9.922;2023-05-09T19:15:18;2.85;;;1.77;;
44728;SDS011;30457;53.590;9.922;2023-05-09T19:19:43;2.35;;;1.90;;
44728;SDS011;30457;53.590;9.922;2023-05-09T19:24:09;4.07;;;1.27;;
44728;SDS011;30457;53.590;9.922;2023-05-09T19:28:34;2.22;;;1.50;;
44728;SDS011;30457;53.590;9.922;2023-05-09T19:33:00;1.73;;;1.40;;
44728;SDS011;30457;53.590;9.922;2023-05-09T19:37:26;2.38;;;1.50;;
44728;SDS011;30457;53.590;9.922;2023-05-09T19:41:51;2.30;;;1.90;;
44728;SDS011;30457;53.590;9.922;2023-05-09T19:46:17;4.53;;;1.90;;
44728;SDS011;30457;53.590;9.922;2023-05-09T19:50:43;2.08;;;1.55;;
44728;SDS011;30457;53.590;9.922;2023-05-09T19:55:09;3.20;;;1.50;;
44728;SDS011;30457;53.590;9.922;2023-05-09T19:59:35;2.63;;;1.80;;
44728;SDS011;30457;53.590;9.922;2023-05-09T20:04:00;2.75;;;1.63;;
44728;SDS011;30457;53.590;9.922;2023-05-09T20:08:26;2.72;;;1.63;;
44728;SDS011;30457;53.590;9.922;2023-05-09T20:12:52;5.38;;;1.70;;
44728;SDS011;30457;53.590;9.922;2023-05-09T20:17:17;3.05;;;1.80;;
44728;SDS011;30457;53.590;9.922;2023-05-09T20:21:43;2.95;;;1.80;;
44728;SDS011;30457;53.590;9.922;2023-05-09T20:26:08;4.22;;;1.88;;
44728;SDS011;30457;53.590;9.922;2023-05-09T20:30:34;7.00;;;1.77;;
44728;SDS011;30457;53.590;9.922;2023-05-09T20:35:00;1.60;;;1.50;;
44728;SDS011;30457;53.590;9.922;2023-05-09T20:39:26;5.00;;;1.80;;
44728;SDS011;30457;53.590;9.922;2023-05-09T20:43:52;3.58;;;1.90;;
44728;SDS011;30457;53.590;9.922;2023-05-09T20:48:18;3.55;;;1.65;;
44728;SDS011;30457;53.590;9.922;2023-05-09T20:52:46;2.83;;;1.73;;
44728;SDS011;30457;53.590;9.922;2023-05-09T20:57:12;3.30;;;1.65;;
44728;SDS011;30457;53.590;9.922;2023-05-09T21:01:38;2.05;;;1.58;;
44728;SDS011;30457;53.590;9.922;2023-05-09T21:06:04;2.20;;;1.75;;
44728;SDS011;30457;53.590;9.922;2023-05-09T21:10:30;3.20;;;2.10;;
44728;SDS011;30457;53.590;9.922;2023-05-09T21:14:55;2.35;;;1.50;;
44728;SDS011;30457;53.590;9.922;2023-05-09T21:19:21;3.50;;;1.85;;
44728;SDS011;30457;53.590;9.922;2023-05-09T21:23:47;2.95;;;1.80;;
44728;SDS011;30457;53.590;9.922;2023-05-09T21:28:13;2.33;;;1.63;;
44728;SDS011;30457;53.590;9.922;2023-05-09T21:32:39;2.22;;;1.73;;
44728;SDS011;30457;53.590;9.922;2023-05-09T21:37:05;2.63;;;2.08;;
44728;SDS011;30457;53.590;9.922;2023-05-09T21:41:30;2.15;;;1.90;;
44728;SDS011;30457;53.590;9.922;2023-05-09T21:45:56;3.15;;;2.15;;
44728;SDS011;30457;53.590;9.922;2023-05-09T21:50:21;1.92;;;1.80;;
44728;SDS011;30457;53.590;9.922;2023-05-09T21:54:47;2.97;;;1.95;;
44728;SDS011;30457;53.590;9.922;2023-05-09T21:59:12;4.38;;;1.70;;
44728;SDS011;30457;53.590;9.922;2023-05-09T22:03:38;4.28;;;1.67;;
44728;SDS011;30457;53.590;9.922;2023-05-09T22:08:04;5.53;;;2.53;;
44728;SDS011;30457;53.590;9.922;2023-05-09T22:12:29;4.40;;;1.77;;
44728;SDS011;30457;53.590;9.922;2023-05-09T22:16:55;3.53;;;1.80;;
44728;SDS011;30457;53.590;9.922;2023-05-09T22:21:21;2.00;;;1.50;;
44728;SDS011;30457;53.590;9.922;2023-05-09T22:25:46;2.20;;;2.00;;
44728;SDS011;30457;53.590;9.922;2023-05-09T22:30:12;2.95;;;1.88;;
44728;SDS011;30457;53.590;9.922;2023-05-09T22:34:37;3.08;;;1.60;;
44728;SDS011;30457;53.590;9.922;2023-05-09T22:39:03;2.28;;;2.00;;
44728;SDS011;30457;53.590;9.922;2023-05-09T22:43:29;5.70;;;1.83;;
44728;SDS011;30457;53.590;9.922;2023-05-09T22:47:55;3.20;;;1.83;;
44728;SDS011;30457;53.590;9.922;2023-05-09T22:52:21;2.33;;;2.10;;
44728;SDS011;30457;53.590;9.922;2023-05-09T22:56:47;4.53;;;1.95;;
44728;SDS011;30457;53.590;9.922;2023-05-09T23:01:12;5.35;;;2.53;;
44728;SDS011;30457;53.590;9.922;2023-05-09T23:05:38;2.60;;;1.92;;
44728;SDS011;30457;53.590;9.922;2023-05-09T23:10:04;3.05;;;2.08;;
44728;SDS011;30457;53.590;9.922;2023-05-09T23:14:29;3.30;;;2.25;;
44728;SDS011;30457;53.590;9.922;2023-05-09T23:18:55;2.60;;;2.20;;
44728;SDS011;30457;53.590;9.922;2023-05-09T23:23:20;2.47;;;2.28;;
44728;SDS011;30457;53.590;9.922;2023-05-09T23:27:46;4.90;;;2.30;;
44728;SDS011;30457;53.590;9.922;2023-05-09T23:32:12;6.00;;;2.25;;
44728;SDS011;30457;53.590;9.922;2023-05-09T23:36:37;2.47;;;2.13;;
44728;SDS011;30457;53.590;9.922;2023-05-09T23:41:03;4.53;;;2.38;;
44728;SDS011;30457;53.590;9.922;2023-05-09T23:45:28;3.17;;;2.50;;
44728;SDS011;30457;53.590;9.922;2023-05-09T23:49:54;4.25;;;2.63;;
44728;SDS011;30457;53.590;9.922;2023-05-09T23:54:20;3.70;;;2.13;;
44728;SDS011;30457;53.590;9.922;2023-05-09T23:58:45;3.95;;;2.50;;
